Time;durP1;ratioP1;P1;durP2;ratioP2;P2;SDS_P1;SDS_P2;PMS_P1;PMS_P2;Temp;Humidity;BMP_temperature;BMP_pressure;BME280_temperature;BME280_humidity;BME280_pressure;Samples;Min_cycle;Max_cycle;Signal;HPM_P1;HPM_P2
2022/11/15 00:01:18;;;;;;;7.73;2.90;;;11.60;36.20;;;;;;5018706;28;20385;-60
2022/11/15 00:03:45;;;;;;;6.90;2.90;;;11.60;16.80;;;;;;5018466;28;20423;-53
2022/11/15 00:06:11;;;;;;;10.60;2.67;;;11.60;1.00;;;;;;5020399;28;20383;-53
2022/11/15 00:08:37;;;;;;;8.07;2.93;;;11.60;1.00;;;;;;5018130;28;20439;-53
2022/11/15 00:11:03;;;;;;;6.90;2.30;;;11.60;1.00;;;;;;5018541;28;20461;-53
2022/11/15 00:13:29;;;;;;;6.80;2.40;;;11.70;1.00;;;;;;5019173;28;20386;-53
2022/11/15 00:16:00;;;;;;;8.57;2.20;;;11.70;1.00;;;;;;5018513;28;20392;-53
2022/11/15 00:18:26;;;;;;;7.63;2.20;;;11.70;1.00;;;;;;5017356;28;20379;-53
2022/11/15 00:20:51;;;;;;;6.22;2.22;;;11.70;1.00;;;;;;5019842;28;20387;-53
2022/11/15 00:23:17;;;;;;;6.93;2.10;;;11.60;1.00;;;;;;5018034;28;20730;-61
2022/11/15 00:25:43;;;;;;;7.70;2.40;;;11.60;1.00;;;;;;5018329;28;20399;-53
2022/11/15 00:28:08;;;;;;;6.97;2.07;;;11.60;1.00;;;;;;5016600;28;20418;-53
2022/11/15 00:30:34;;;;;;;7.20;2.00;;;11.70;1.00;;;;;;5017247;28;20385;-54
2022/11/15 00:33:04;;;;;;;6.95;2.10;;;11.60;1.00;;;;;;5013459;28;20408;-55
2022/11/15 00:35:34;;;;;;;7.00;1.90;;;11.60;1.00;;;;;;5017786;28;20544;-55
2022/11/15 00:38:00;;;;;;;6.90;1.90;;;11.70;99.90;;;;;;5015580;28;20393;-53
2022/11/15 00:40:26;;;;;;;7.00;2.13;;;11.80;99.90;;;;;;5017088;28;20383;-53
2022/11/15 00:42:51;;;;;;;6.80;1.63;;;11.70;99.90;;;;;;5008469;28;20861;-54
2022/11/15 00:45:17;;;;;;;8.20;2.00;;;11.80;99.90;;;;;;5008219;28;20385;-61
2022/11/15 00:47:46;;;;;;;6.70;2.17;;;11.70;99.90;;;;;;5007671;28;20473;-53
2022/11/15 00:50:12;;;;;;;6.05;1.77;;;11.70;99.90;;;;;;5008190;28;20960;-53
2022/11/15 00:52:37;;;;;;;6.10;1.60;;;11.70;99.90;;;;;;5007544;28;20377;-54
2022/11/15 00:55:03;;;;;;;7.30;2.00;;;11.70;99.90;;;;;;5008128;28;20726;-53
2022/11/15 00:57:29;;;;;;;6.03;1.58;;;11.70;99.90;;;;;;5005602;28;20492;-53
2022/11/15 00:59:54;;;;;;;7.80;1.90;;;11.70;99.90;;;;;;5008140;28;20477;-53
2022/11/15 01:02:20;;;;;;;6.43;1.98;;;11.70;99.90;;;;;;5007237;28;20426;-61
2022/11/15 01:04:46;;;;;;;6.60;1.90;;;11.60;99.90;;;;;;5007214;28;20858;-53
2022/11/15 01:07:11;;;;;;;7.00;2.22;;;11.60;99.90;;;;;;5007375;28;20786;-53
2022/11/15 01:09:37;;;;;;;6.43;1.83;;;11.50;99.90;;;;;;4997145;28;20433;-55
2022/11/15 01:12:03;;;;;;;5.70;1.80;;;11.50;99.90;;;;;;5007689;28;20409;-53
2022/11/15 01:14:28;;;;;;;6.28;1.60;;;11.50;99.90;;;;;;5007041;28;20381;-54
2022/11/15 01:16:54;;;;;;;7.53;2.30;;;11.50;99.90;;;;;;5007433;28;20837;-53
2022/11/15 01:19:19;;;;;;;5.88;1.90;;;11.40;99.90;;;;;;5007131;28;20435;-60
2022/11/15 01:21:45;;;;;;;7.25;1.80;;;11.40;99.90;;;;;;5007812;28;20624;-53
2022/11/15 01:24:12;;;;;;;7.40;2.10;;;11.30;99.90;;;;;;5008265;28;20462;-53
2022/11/15 01:26:38;;;;;;;6.90;2.30;;;11.30;99.90;;;;;;5006931;28;20652;-53
2022/11/15 01:29:04;;;;;;;6.78;1.85;;;11.30;99.90;;;;;;5008023;28;20929;-53
2022/11/15 01:31:29;;;;;;;6.50;1.80;;;11.30;99.90;;;;;;5007281;28;20861;-53
2022/11/15 01:33:55;;;;;;;6.70;2.20;;;11.20;99.90;;;;;;5007887;28;20376;-53
2022/11/15 01:36:22;;;;;;;6.70;1.97;;;11.20;99.90;;;;;;5007326;28;20388;-61
2022/11/15 01:38:54;;;;;;;7.85;1.90;;;11.10;99.90;;;;;;5007591;28;20811;-53
2022/11/15 01:41:26;;;;;;;5.63;1.60;;;11.10;99.90;;;;;;5010926;28;20422;-60
2022/11/15 01:43:54;;;;;;;6.05;2.10;;;11.80;99.90;;;;;;5018093;28;20395;-53
2022/11/15 01:46:35;;;;;;;8.27;1.80;;;11.30;99.90;;;;;;5009979;28;20399;-60
2022/11/15 01:49:05;;;;;;;5.63;1.50;;;11.20;99.90;;;;;;5014479;28;20493;-53
2022/11/15 01:51:33;;;;;;;7.97;2.00;;;11.20;99.90;;;;;;5013629;28;20404;-53
2022/11/15 01:54:03;;;;;;;6.83;2.10;;;11.20;99.90;;;;;;5015877;28;20451;-53
2022/11/15 01:56:36;;;;;;;7.72;1.88;;;11.30;99.90;;;;;;5011080;28;20458;-53
2022/11/15 01:59:06;;;;;;;7.30;1.85;;;11.30;99.90;;;;;;5017873;28;20752;-53
2022/11/15 02:01:33;;;;;;;7.10;2.00;;;11.30;99.90;;;;;;5013431;28;20395;-53
2022/11/15 02:04:08;;;;;;;6.78;1.90;;;11.40;99.90;;;;;;5016855;28;20864;-53
2022/11/15 02:06:35;;;;;;;6.57;2.00;;;11.40;99.90;;;;;;5014017;28;20442;-53
2022/11/15 02:09:01;;;;;;;6.75;2.05;;;11.50;99.90;;;;;;5018863;28;20412;-53
2022/11/15 02:11:27;;;;;;;7.60;2.20;;;11.50;99.90;;;;;;5015234;28;20404;-53
2022/11/15 02:13:54;;;;;;;6.88;1.90;;;11.50;99.90;;;;;;5017781;28;20383;-53
2022/11/15 02:16:41;;;;;;;6.63;2.17;;;11.50;99.90;;;;;;5015646;28;20391;-61
2022/11/15 02:19:28;;;;;;;6.85;2.30;;;11.40;99.90;;;;;;5021587;28;20914;-53
2022/11/15 02:22:14;;;;;;;6.57;2.38;;;11.40;99.90;;;;;;5017945;28;20389;-54
2022/11/15 02:25:00;;;;;;;5.97;1.90;;;11.40;99.90;;;;;;5013399;28;20616;-53
2022/11/15 02:27:44;;;;;;;8.57;2.33;;;11.50;99.90;;;;;;5008683;28;20427;-54
2022/11/15 02:30:42;;;;;;;7.00;2.10;;;11.50;99.90;;;;;;5019794;28;20381;-59
2022/11/15 02:33:08;;;;;;;6.40;2.00;;;12.10;99.90;;;;;;5016541;28;20442;-53
2022/11/15 02:35:43;;;;;;;5.87;2.07;;;11.50;99.90;;;;;;5019759;28;20428;-53
2022/11/15 02:38:26;;;;;;;7.22;2.30;;;11.50;99.90;;;;;;5016719;28;20399;-54
2022/11/15 02:40:54;;;;;;;6.35;2.13;;;11.40;99.90;;;;;;5010076;28;20942;-55
2022/11/15 02:49:34;;;;;;;8.55;2.50;;;11.30;99.90;;;;;;5019643;28;20427;-53
2022/11/15 02:52:00;;;;;;;7.15;2.10;;;11.50;99.90;;;;;;4999592;28;20704;-55
2022/11/15 02:54:29;;;;;;;6.70;2.40;;;11.40;99.90;;;;;;5019143;28;20386;-53
2022/11/15 02:57:00;;;;;;;8.90;2.20;;;11.50;99.90;;;;;;5020724;28;20442;-53
2022/11/15 02:59:25;;;;;;;7.57;2.15;;;11.50;99.90;;;;;;5020035;28;20463;-53
2022/11/15 03:02:09;;;;;;;6.33;2.20;;;11.50;99.90;;;;;;5015760;28;20487;-53
2022/11/15 03:04:52;;;;;;;6.05;1.95;;;11.50;99.90;;;;;;5016048;28;20479;-53
2022/11/15 03:07:38;;;;;;;6.95;2.17;;;11.50;99.90;;;;;;5017797;28;20506;-53
2022/11/15 03:10:28;;;;;;;6.00;1.83;;;11.50;99.90;;;;;;5020935;28;20432;-53
2022/11/15 03:13:06;;;;;;;7.73;2.40;;;11.50;99.90;;;;;;5014966;28;20390;-53
2022/11/15 03:15:40;;;;;;;7.23;2.53;;;11.50;99.90;;;;;;5016413;28;20389;-53
2022/11/15 03:18:12;;;;;;;7.68;2.80;;;11.40;99.90;;;;;;5021337;28;20470;-54
2022/11/15 03:20:39;;;;;;;10.43;2.55;;;11.40;99.90;;;;;;5019368;28;20854;-53
2022/11/15 03:23:09;;;;;;;7.20;2.70;;;11.20;99.90;;;;;;5018667;28;20390;-53
2022/11/15 03:25:41;;;;;;;7.27;2.53;;;11.00;99.90;;;;;;5013732;28;20408;-53
2022/11/15 03:28:11;;;;;;;7.75;2.83;;;10.90;99.90;;;;;;5014376;28;20418;-53
2022/11/15 03:30:39;;;;;;;6.90;2.70;;;10.70;99.90;;;;;;5018701;28;20391;-53
2022/11/15 03:33:06;;;;;;;8.25;2.63;;;10.60;99.90;;;;;;5017919;28;20416;-53
2022/11/15 03:35:40;;;;;;;7.35;2.10;;;10.50;1.00;;;;;;5020670;28;20395;-53
2022/11/15 03:38:23;;;;;;;8.57;2.50;;;10.40;1.00;;;;;;5020533;28;20408;-53
2022/11/15 03:40:58;;;;;;;6.45;2.40;;;10.30;99.90;;;;;;5016928;28;20510;-54
2022/11/15 03:43:55;;;;;;;7.50;2.70;;;10.30;99.90;;;;;;5008702;28;20427;-60
2022/11/15 03:47:01;;;;;;;8.60;2.65;;;10.30;99.90;;;;;;5006539;28;20381;-60
2022/11/15 03:49:32;;;;;;;6.18;2.10;;;10.30;99.90;;;;;;4995629;28;20405;-57
2022/11/15 03:51:59;;;;;;;7.22;2.63;;;10.20;99.90;;;;;;5004524;28;20490;-53
2022/11/15 03:54:24;;;;;;;6.35;2.10;;;10.20;1.00;;;;;;5003676;28;20382;-61
2022/11/15 03:56:50;;;;;;;6.60;2.30;;;10.20;1.00;;;;;;5002268;28;20433;-53
2022/11/15 03:59:15;;;;;;;7.73;2.67;;;10.20;1.00;;;;;;5006469;28;20897;-54
2022/11/15 04:01:41;;;;;;;7.25;2.80;;;10.20;1.00;;;;;;5008780;28;20465;-53
2022/11/15 04:04:07;;;;;;;8.97;4.00;;;10.20;1.00;;;;;;4991674;28;20908;-53
2022/11/15 04:06:32;;;;;;;14.02;6.78;;;10.30;1.00;;;;;;5008436;28;20381;-53
2022/11/15 04:08:58;;;;;;;13.70;3.50;;;10.40;1.00;;;;;;5009319;28;20518;-53
2022/11/15 04:11:23;;;;;;;8.07;2.90;;;10.30;99.90;;;;;;4985966;28;20962;-61
2022/11/15 04:13:49;;;;;;;7.10;2.70;;;10.40;1.00;;;;;;5006171;28;20381;-53
2022/11/15 04:16:14;;;;;;;9.03;2.80;;;10.40;1.00;;;;;;5009083;28;20777;-53
2022/11/15 04:18:40;;;;;;;7.88;2.83;;;10.30;1.00;;;;;;4999602;28;20420;-53
2022/11/15 04:26:31;;;;;;;7.47;3.30;;;10.30;99.90;;;;;;5008104;28;20377;-53
2022/11/15 04:31:40;;;;;;;8.50;2.80;;;10.50;1.00;;;;;;4988900;28;20378;-53
2022/11/15 04:34:06;;;;;;;9.53;3.30;;;10.40;1.00;;;;;;4984415;28;20392;-53
2022/11/15 04:39:15;;;;;;;7.75;3.08;;;10.40;1.00;;;;;;5007419;28;20388;-53
2022/11/15 04:41:41;;;;;;;7.70;3.50;;;10.40;99.90;;;;;;5012932;28;20892;-53
2022/11/15 04:44:07;;;;;;;7.95;3.10;;;10.40;99.90;;;;;;5017683;28;20466;-53
2022/11/15 04:46:32;;;;;;;8.73;3.17;;;10.40;99.90;;;;;;5018581;28;20492;-53
2022/11/15 04:48:58;;;;;;;8.10;3.57;;;10.40;99.90;;;;;;5017298;28;20420;-53
2022/11/15 04:51:23;;;;;;;7.75;2.30;;;10.40;99.90;;;;;;5018278;28;20481;-61
2022/11/15 04:53:49;;;;;;;8.30;3.30;;;11.10;99.90;;;;;;5014333;28;20484;-53
2022/11/15 04:56:14;;;;;;;9.83;2.87;;;10.40;98.20;;;;;;5004206;28;20463;-57
2022/11/15 04:58:40;;;;;;;8.32;3.10;;;10.40;99.90;;;;;;4995296;28;20424;-56
2022/11/15 05:01:11;;;;;;;9.50;3.20;;;10.30;1.00;;;;;;5006169;28;20501;-53
2022/11/15 05:06:21;;;;;;;10.68;3.70;;;10.20;99.90;;;;;;5007479;28;20423;-60
2022/11/15 05:08:47;;;;;;;7.20;3.00;;;10.10;99.90;;;;;;4993739;28;20848;-55
2022/11/15 05:11:13;;;;;;;10.10;3.30;;;10.10;99.90;;;;;;4988966;28;20749;-53
2022/11/15 05:13:38;;;;;;;7.10;3.00;;;10.00;99.90;;;;;;4987941;28;20438;-59
2022/11/15 05:16:04;;;;;;;7.27;2.70;;;9.90;1.00;;;;;;4999104;28;20560;-56
2022/11/15 05:18:29;;;;;;;7.70;2.90;;;9.90;1.00;;;;;;4988522;28;20837;-53
2022/11/15 05:20:55;;;;;;;7.50;3.27;;;9.80;99.90;;;;;;4989136;28;20903;-52
2022/11/15 05:23:21;;;;;;;7.00;2.70;;;9.80;1.00;;;;;;4993938;28;20708;-52
2022/11/15 05:25:46;;;;;;;8.50;2.70;;;9.70;1.00;;;;;;4997030;28;20873;-54
2022/11/15 05:28:12;;;;;;;8.25;2.60;;;9.70;1.00;;;;;;5007200;28;20778;-53
2022/11/15 05:30:38;;;;;;;9.30;2.58;;;9.80;65.70;;;;;;4988148;28;20391;-52
2022/11/15 05:33:03;;;;;;;7.73;2.33;;;9.80;1.00;;;;;;4988849;28;20398;-52
2022/11/15 05:35:46;;;;;;;6.53;2.27;;;9.80;99.90;;;;;;4993988;28;20401;-52
2022/11/15 05:38:11;;;;;;;8.30;2.58;;;9.90;1.00;;;;;;5008112;28;20401;-53
2022/11/15 05:40:37;;;;;;;8.83;2.87;;;9.90;1.00;;;;;;4989962;28;20403;-52
2022/11/15 05:43:04;;;;;;;6.82;2.20;;;9.90;99.90;;;;;;5003955;28;20476;-53
2022/11/15 05:45:32;;;;;;;7.50;2.58;;;10.00;1.00;;;;;;4993448;28;21233;-53
2022/11/15 05:48:01;;;;;;;6.57;2.25;;;10.10;99.90;;;;;;4988530;28;20514;-53
2022/11/15 05:50:27;;;;;;;6.75;2.28;;;10.10;99.90;;;;;;4989599;28;20468;-54
2022/11/15 05:52:54;;;;;;;7.50;2.30;;;10.10;99.90;;;;;;5002080;28;20427;-53
2022/11/15 05:55:20;;;;;;;9.10;2.50;;;10.10;99.90;;;;;;5003802;28;20414;-53
2022/11/15 05:57:45;;;;;;;8.83;2.30;;;10.10;99.90;;;;;;5011738;28;20489;-54
2022/11/15 06:00:12;;;;;;;8.30;2.58;;;10.20;99.90;;;;;;5028923;28;20434;-54
2022/11/15 06:02:37;;;;;;;6.53;2.35;;;10.30;30.80;;;;;;4996245;28;20434;-56
2022/11/15 06:05:03;;;;;;;8.07;2.10;;;10.30;1.00;;;;;;4992207;28;20405;-53
2022/11/15 06:07:29;;;;;;;5.85;2.00;;;10.30;99.90;;;;;;4991433;28;20417;-53
2022/11/15 06:09:55;;;;;;;6.28;2.10;;;10.50;99.90;;;;;;4992132;28;20386;-53
2022/11/15 06:12:21;;;;;;;8.30;2.60;;;10.60;99.90;;;;;;5001229;28;20860;-56
2022/11/15 06:14:46;;;;;;;6.95;2.30;;;10.60;99.90;;;;;;5009984;28;20396;-54
2022/11/15 06:17:12;;;;;;;8.00;2.70;;;10.50;99.90;;;;;;5010798;28;20909;-53
2022/11/15 06:19:37;;;;;;;9.38;3.00;;;10.40;99.90;;;;;;5006079;28;20821;-54
2022/11/15 06:22:03;;;;;;;10.90;3.10;;;10.20;1.00;;;;;;5010930;28;20429;-55
2022/11/15 06:24:28;;;;;;;8.00;2.70;;;10.10;99.90;;;;;;5010747;28;20854;-53
2022/11/15 06:26:54;;;;;;;6.68;2.70;;;9.90;99.90;;;;;;5011657;28;20451;-53
2022/11/15 06:29:20;;;;;;;8.80;3.00;;;9.90;99.90;;;;;;4993784;28;20412;-54
2022/11/15 06:31:45;;;;;;;8.00;2.58;;;9.90;99.90;;;;;;5010936;28;20377;-53
2022/11/15 06:34:11;;;;;;;8.30;2.90;;;9.90;99.90;;;;;;5011342;28;20411;-53
2022/11/15 06:36:37;;;;;;;8.30;3.00;;;9.90;99.90;;;;;;5010779;28;20877;-53
2022/11/15 06:39:03;;;;;;;6.88;2.92;;;10.00;99.90;;;;;;5011630;28;20553;-54
2022/11/15 06:41:29;;;;;;;7.60;2.88;;;9.90;35.40;;;;;;5010809;28;20420;-53
2022/11/15 06:43:56;;;;;;;8.80;3.07;;;10.00;28.10;;;;;;5011802;28;20428;-54
2022/11/15 06:46:21;;;;;;;7.95;2.92;;;10.10;1.00;;;;;;5011840;28;20380;-55
2022/11/15 06:48:49;;;;;;;7.33;2.60;;;10.20;1.00;;;;;;5010745;28;20421;-54
2022/11/15 06:51:14;;;;;;;7.85;2.97;;;10.20;99.90;;;;;;5010894;28;20380;-54
2022/11/15 06:53:40;;;;;;;8.25;3.05;;;10.50;45.30;;;;;;5010834;28;20420;-53
2022/11/15 06:56:07;;;;;;;8.77;3.30;;;10.60;1.00;;;;;;5011274;28;20471;-53
2022/11/15 06:58:33;;;;;;;10.18;3.33;;;10.80;99.90;;;;;;5010178;28;20381;-54
2022/11/15 07:01:07;;;;;;;8.55;3.03;;;10.90;99.90;;;;;;5011147;28;20380;-53
2022/11/15 07:03:42;;;;;;;8.50;3.10;;;11.00;99.90;;;;;;5009620;28;20499;-53
2022/11/15 07:06:08;;;;;;;10.60;3.72;;;11.00;99.90;;;;;;5012467;28;20940;-53
2022/11/15 07:08:35;;;;;;;8.30;3.65;;;11.10;84.90;;;;;;5025387;28;20422;-56
2022/11/15 07:11:03;;;;;;;8.90;3.38;;;11.00;67.30;;;;;;5012804;28;20877;-55
2022/11/15 07:13:32;;;;;;;11.27;3.40;;;11.00;77.40;;;;;;5012740;28;20478;-54
2022/11/15 07:16:01;;;;;;;7.35;3.20;;;10.90;95.00;;;;;;5030505;28;20387;-52
2022/11/15 07:18:27;;;;;;;8.05;2.90;;;11.00;99.90;;;;;;5029976;28;20382;-59
2022/11/15 07:20:53;;;;;;;10.87;3.20;;;11.00;99.90;;;;;;5030246;28;20387;-53
2022/11/15 07:23:18;;;;;;;8.93;3.20;;;11.10;99.90;;;;;;5016637;28;20404;-54
2022/11/15 07:25:44;;;;;;;8.60;3.10;;;11.10;56.10;;;;;;5009739;28;20547;-54
2022/11/15 07:28:09;;;;;;;7.05;2.58;;;11.30;1.00;;;;;;5009784;28;20834;-54
2022/11/15 07:30:35;;;;;;;8.00;2.20;;;11.50;1.00;;;;;;5009413;28;20718;-54
2022/11/15 07:33:01;;;;;;;6.30;2.07;;;11.50;1.00;;;;;;5010632;28;20385;-53
2022/11/15 07:35:28;;;;;;;6.72;1.90;;;11.70;1.00;;;;;;5009613;28;20395;-61
2022/11/15 07:37:59;;;;;;;6.32;2.13;;;11.90;1.00;;;;;;5010444;28;20395;-53
2022/11/15 07:40:27;;;;;;;11.38;2.90;;;12.50;99.90;;;;;;5023777;28;20835;-61
2022/11/15 07:42:58;;;;;;;7.13;2.30;;;13.00;99.90;;;;;;5030331;28;20394;-54
2022/11/15 07:45:26;;;;;;;7.57;2.40;;;13.50;79.80;;;;;;5030064;28;20388;-56
2022/11/15 07:47:51;;;;;;;6.95;1.95;;;13.90;1.00;;;;;;5029689;28;20407;-59
2022/11/15 07:50:18;;;;;;;7.80;2.20;;;14.00;1.00;;;;;;5030274;28;20491;-54
2022/11/15 07:52:43;;;;;;;6.90;2.10;;;14.20;1.00;;;;;;5029147;28;20390;-53
2022/11/15 07:55:09;;;;;;;8.40;2.80;;;14.30;1.00;;;;;;5029658;28;20383;-55
2022/11/15 07:57:35;;;;;;;7.00;2.60;;;14.40;1.00;;;;;;5028902;28;20379;-57
2022/11/15 08:00:01;;;;;;;8.38;2.72;;;14.70;1.00;;;;;;5029841;28;20378;-53
2022/11/15 08:02:26;;;;;;;8.20;2.60;;;15.00;1.00;;;;;;5029188;28;20406;-60
2022/11/15 08:04:52;;;;;;;7.83;2.60;;;14.90;1.00;;;;;;5029263;28;20391;-53
2022/11/15 08:07:17;;;;;;;6.72;2.10;;;14.70;1.00;;;;;;5029691;28;20743;-53
2022/11/15 08:09:43;;;;;;;9.18;2.90;;;14.40;1.00;;;;;;5029031;28;20856;-52
2022/11/15 08:12:09;;;;;;;7.77;2.73;;;14.30;1.00;;;;;;5028309;28;20391;-53
2022/11/15 08:14:35;;;;;;;8.70;3.03;;;14.00;1.00;;;;;;5013739;28;20389;-53
2022/11/15 08:17:01;;;;;;;9.60;3.78;;;13.80;1.00;;;;;;5009779;28;20735;-53
2022/11/15 08:19:27;;;;;;;9.47;3.50;;;13.70;1.00;;;;;;5009423;28;20392;-61
2022/11/15 08:21:52;;;;;;;9.38;4.07;;;13.50;1.00;;;;;;5009195;28;20389;-53
2022/11/15 08:24:18;;;;;;;10.27;3.30;;;13.60;1.00;;;;;;5009693;28;20381;-53
2022/11/15 08:26:44;;;;;;;8.00;2.90;;;13.80;1.00;;;;;;5008684;28;20385;-54
2022/11/15 08:29:09;;;;;;;9.77;3.20;;;14.10;1.00;;;;;;5009341;28;20914;-53
2022/11/15 08:31:36;;;;;;;9.77;3.40;;;14.50;1.00;;;;;;5008784;28;20850;-53
2022/11/15 08:34:03;;;;;;;8.80;3.20;;;14.80;1.00;;;;;;5009399;28;20385;-53
2022/11/15 08:36:29;;;;;;;7.75;2.83;;;15.10;1.00;;;;;;5008551;28;20385;-60
2022/11/15 08:38:54;;;;;;;8.50;2.97;;;15.90;1.00;;;;;;5009115;28;20399;-53
2022/11/15 08:41:30;;;;;;;11.90;3.60;;;16.50;1.00;;;;;;5008743;28;20420;-53
2022/11/15 08:43:56;;;;;;;8.05;3.38;;;17.40;1.00;;;;;;5009223;28;20481;-53
2022/11/15 08:46:21;;;;;;;8.30;3.00;;;18.00;1.00;;;;;;5009203;28;20476;-53
2022/11/15 08:48:47;;;;;;;9.20;3.20;;;19.00;1.00;;;;;;5008493;28;20497;-53
2022/11/15 08:51:13;;;;;;;14.17;5.80;;;20.60;1.00;;;;;;5008934;28;20392;-53
2022/11/15 08:53:39;;;;;;;10.32;9.32;;;21.80;99.90;;;;;;5008034;28;20404;-53
2022/11/15 08:56:08;;;;;;;12.35;11.20;;;22.30;99.90;;;;;;5008842;28;20416;-54
2022/11/15 08:58:35;;;;;;;13.35;12.05;;;23.10;99.90;;;;;;5008136;28;20446;-53
2022/11/15 09:01:00;;;;;;;13.50;12.40;;;23.40;99.90;;;;;;5008777;28;20384;-58
2022/11/15 09:03:26;;;;;;;14.70;13.40;;;24.10;99.90;;;;;;5008735;28;20392;-61
2022/11/15 09:06:00;;;;;;;14.77;13.50;;;24.10;99.90;;;;;;5008554;28;20377;-53
2022/11/15 09:08:29;;;;;;;12.10;10.80;;;23.80;99.90;;;;;;5008807;28;20420;-54
2022/11/15 09:10:55;;;;;;;13.77;9.90;;;22.70;99.90;;;;;;5008604;28;20423;-54
2022/11/15 09:13:20;;;;;;;12.50;9.50;;;21.40;99.90;;;;;;5012926;28;20689;-53
2022/11/15 09:15:46;;;;;;;10.50;7.88;;;21.00;99.90;;;;;;5027825;28;21242;-53
2022/11/15 09:18:11;;;;;;;11.03;7.60;;;19.90;99.90;;;;;;5028391;28;20391;-54
2022/11/15 09:20:37;;;;;;;10.63;7.07;;;19.40;99.90;;;;;;5027834;28;20414;-53
2022/11/15 09:23:04;;;;;;;13.33;7.10;;;18.90;99.90;;;;;;5028213;28;20815;-53
2022/11/15 09:25:30;;;;;;;12.95;5.60;;;18.30;99.90;;;;;;5027716;28;20493;-60
2022/11/15 09:27:56;;;;;;;12.50;5.90;;;17.60;99.90;;;;;;5027747;28;20510;-53
2022/11/15 09:30:22;;;;;;;13.80;6.53;;;16.90;99.90;;;;;;5028201;28;20490;-54
2022/11/15 09:32:48;;;;;;;12.30;5.60;;;16.50;99.90;;;;;;5027486;28;20379;-53
2022/11/15 09:35:13;;;;;;;13.00;5.80;;;16.50;99.90;;;;;;5027910;28;20387;-54
2022/11/15 09:37:39;;;;;;;11.53;5.90;;;16.70;99.90;;;;;;5027289;28;20926;-53
2022/11/15 09:40:06;;;;;;;12.65;5.85;;;16.90;99.90;;;;;;5028233;28;20475;-53
2022/11/15 09:43:04;;;;;;;10.10;5.18;;;17.10;99.90;;;;;;5026635;28;20411;-56
2022/11/15 09:45:53;;;;;;;13.20;5.25;;;17.10;99.90;;;;;;5027520;28;20395;-59
2022/11/15 09:48:40;;;;;;;15.23;5.70;;;17.60;99.90;;;;;;4990387;28;20890;-54
2022/11/15 09:51:13;;;;;;;12.10;5.47;;;17.60;99.90;;;;;;5028482;28;20390;-54
2022/11/15 09:53:49;;;;;;;11.47;5.20;;;18.50;99.90;;;;;;5026982;28;20444;-54
2022/11/15 09:56:28;;;;;;;12.82;5.80;;;18.60;99.90;;;;;;5028342;28;20395;-54
2022/11/15 09:58:57;;;;;;;13.27;5.38;;;18.10;99.90;;;;;;5027612;28;20470;-54
2022/11/15 10:01:54;;;;;;;11.87;5.50;;;17.80;99.90;;;;;;5027848;28;20446;-54
2022/11/15 10:04:22;;;;;;;11.80;5.35;;;17.50;99.90;;;;;;5027706;28;20848;-54
2022/11/15 10:07:06;;;;;;;11.43;5.35;;;17.30;99.90;;;;;;5027250;28;20405;-54
2022/11/15 10:09:53;;;;;;;12.52;4.95;;;17.40;99.90;;;;;;5027127;28;20415;-61
2022/11/15 10:12:19;;;;;;;11.07;4.87;;;17.20;99.90;;;;;;5026506;28;20411;-54
2022/11/15 10:14:47;;;;;;;10.95;5.05;;;17.20;99.90;;;;;;5011340;28;20393;-54
2022/11/15 10:17:41;;;;;;;11.00;4.43;;;17.00;99.90;;;;;;5007749;28;20443;-54
2022/11/15 10:20:17;;;;;;;10.85;4.60;;;16.90;99.90;;;;;;5008312;28;20387;-54
2022/11/15 10:22:50;;;;;;;10.98;4.60;;;16.80;99.90;;;;;;5007386;28;20385;-54
2022/11/15 10:25:19;;;;;;;10.52;4.60;;;16.70;99.90;;;;;;5007978;28;20408;-54
2022/11/15 10:27:51;;;;;;;10.68;5.07;;;16.80;99.90;;;;;;5007317;28;20413;-54
2022/11/15 10:30:18;;;;;;;11.40;4.80;;;16.90;99.90;;;;;;5008085;28;20392;-54
2022/11/15 10:32:46;;;;;;;11.60;5.25;;;16.90;99.90;;;;;;5007187;28;20377;-54
2022/11/15 10:35:22;;;;;;;10.30;4.63;;;16.90;99.90;;;;;;5008073;28;20381;-55
2022/11/15 10:37:48;;;;;;;12.85;5.15;;;16.90;99.90;;;;;;5007798;28;20393;-54
2022/11/15 10:40:18;;;;;;;13.25;5.13;;;16.80;99.90;;;;;;5011193;28;20392;-54
2022/11/15 10:42:44;;;;;;;13.20;5.50;;;16.60;99.90;;;;;;5010115;28;20417;-54
2022/11/15 10:45:37;;;;;;;13.07;5.43;;;16.60;99.90;;;;;;5011633;28;20385;-54
2022/11/15 10:48:11;;;;;;;9.35;4.35;;;16.60;99.90;;;;;;5007498;28;20567;-55
2022/11/15 10:50:38;;;;;;;13.00;5.03;;;16.70;99.90;;;;;;5010497;28;20467;-54
2022/11/15 10:53:12;;;;;;;13.63;5.00;;;16.70;99.90;;;;;;5011093;28;21436;-54
2022/11/15 10:55:42;;;;;;;13.27;5.10;;;16.60;99.90;;;;;;5010407;28;20373;-54
2022/11/15 10:58:23;;;;;;;12.73;4.40;;;16.50;99.90;;;;;;5011155;28;20463;-54
2022/11/15 11:00:48;;;;;;;10.75;4.78;;;16.30;99.90;;;;;;5010217;28;20599;-54
2022/11/15 11:03:35;;;;;;;11.43;4.10;;;16.20;99.90;;;;;;5011154;28;20949;-54
2022/11/15 11:06:05;;;;;;;13.32;4.95;;;16.10;99.90;;;;;;5011144;28;20392;-54
2022/11/15 11:08:31;;;;;;;10.60;4.97;;;16.20;99.90;;;;;;5010664;28;20404;-60
2022/11/15 11:10:59;;;;;;;12.30;5.18;;;16.10;99.90;;;;;;5010712;28;20742;-54
2022/11/15 11:13:33;;;;;;;9.65;4.80;;;16.00;99.90;;;;;;5011835;28;20399;-53
2022/11/15 11:16:14;;;;;;;10.70;4.93;;;16.10;99.90;;;;;;5030926;28;20383;-54
2022/11/15 11:18:55;;;;;;;10.38;5.05;;;16.00;99.90;;;;;;5029853;28;20391;-54
2022/11/15 11:21:43;;;;;;;9.97;5.00;;;16.00;99.90;;;;;;5029304;28;20478;-54
2022/11/15 11:24:36;;;;;;;10.88;4.45;;;15.80;99.90;;;;;;5019913;28;20404;-53
2022/11/15 11:27:04;;;;;;;10.10;4.90;;;15.70;99.90;;;;;;5030345;28;20469;-54
2022/11/15 11:29:52;;;;;;;12.13;5.30;;;15.70;99.90;;;;;;5030076;28;20517;-60
2022/11/15 11:32:50;;;;;;;12.70;5.80;;;15.70;99.90;;;;;;5030410;28;20380;-54
2022/11/15 11:35:32;;;;;;;14.88;5.53;;;15.80;99.90;;;;;;5030265;28;20379;-52
2022/11/15 11:38:16;;;;;;;11.90;5.10;;;15.80;99.90;;;;;;5030049;28;20387;-53
2022/11/15 11:40:50;;;;;;;16.17;6.50;;;15.80;99.90;;;;;;5028951;28;20509;-54
2022/11/15 11:43:40;;;;;;;10.83;5.70;;;15.90;99.90;;;;;;5030127;28;20732;-53
2022/11/15 11:46:46;;;;;;;14.32;5.93;;;16.00;99.90;;;;;;5029967;28;20393;-53
2022/11/15 11:49:19;;;;;;;14.57;7.00;;;16.00;99.90;;;;;;5028760;28;20472;-54
2022/11/15 11:52:03;;;;;;;17.10;7.30;;;16.20;99.90;;;;;;5029208;28;20387;-53
2022/11/15 11:54:52;;;;;;;13.52;6.00;;;16.40;99.90;;;;;;5029948;28;20386;-53
2022/11/15 11:57:29;;;;;;;14.50;5.88;;;16.40;99.90;;;;;;5029585;28;20840;-53
2022/11/15 12:00:02;;;;;;;12.87;5.30;;;16.30;99.90;;;;;;5029247;28;20390;-53
2022/11/15 12:02:34;;;;;;;11.38;5.22;;;16.40;99.90;;;;;;5029516;28;20386;-53
2022/11/15 12:05:49;;;;;;;11.37;4.80;;;16.30;99.90;;;;;;5029511;28;20375;-53
2022/11/15 12:08:33;;;;;;;13.52;5.25;;;16.30;99.90;;;;;;4948975;29;20535;-53
2022/11/15 12:11:24;;;;;;;11.70;5.10;;;16.40;99.90;;;;;;4948339;29;20460;-56
2022/11/15 12:13:57;;;;;;;11.98;4.43;;;16.50;99.90;;;;;;5007224;28;20862;-53
2022/11/15 12:16:31;;;;;;;10.25;4.40;;;16.70;99.90;;;;;;5009289;28;20436;-57
2022/11/15 12:19:01;;;;;;;13.80;4.70;;;16.70;99.90;;;;;;5008863;28;20392;-54
2022/11/15 12:21:54;;;;;;;11.70;4.20;;;16.80;99.90;;;;;;5009695;28;20393;-55
2022/11/15 12:24:33;;;;;;;11.93;4.97;;;16.80;99.90;;;;;;5009620;28;20416;-53
2022/11/15 12:27:34;;;;;;;14.60;5.20;;;16.70;99.90;;;;;;5009065;28;20389;-53
2022/11/15 12:30:22;;;;;;;13.70;4.80;;;16.80;99.90;;;;;;5009514;28;20393;-54
2022/11/15 12:32:57;;;;;;;11.05;4.63;;;16.60;99.90;;;;;;5007948;28;20459;-54
2022/11/15 12:35:26;;;;;;;10.73;4.93;;;16.40;99.90;;;;;;5009667;28;20431;-53
2022/11/15 12:37:55;;;;;;;11.43;4.88;;;16.10;99.90;;;;;;5008705;28;20400;-53
2022/11/15 12:40:23;;;;;;;10.63;4.78;;;16.10;99.90;;;;;;5009221;28;20389;-53
2022/11/15 12:43:04;;;;;;;10.87;4.90;;;15.90;99.90;;;;;;5007294;28;20428;-54
2022/11/15 12:45:39;;;;;;;14.52;5.00;;;15.80;99.90;;;;;;5008730;28;20385;-57
2022/11/15 12:48:16;;;;;;;11.45;4.40;;;15.80;99.90;;;;;;5008352;28;20429;-53
2022/11/15 12:50:54;;;;;;;12.85;4.75;;;15.70;99.90;;;;;;5008036;28;20859;-53
2022/11/15 12:53:22;;;;;;;10.85;4.93;;;15.70;99.90;;;;;;5009011;28;20409;-55
2022/11/15 12:56:09;;;;;;;8.10;3.83;;;15.70;99.90;;;;;;5008174;28;20467;-53
2022/11/15 12:58:56;;;;;;;12.65;5.20;;;15.70;99.90;;;;;;5008244;28;20893;-60
2022/11/15 13:01:34;;;;;;;10.60;4.63;;;15.60;99.90;;;;;;5008863;28;20476;-53
2022/11/15 13:04:18;;;;;;;9.55;4.65;;;15.60;99.90;;;;;;5008763;28;20719;-53
2022/11/15 13:07:04;;;;;;;13.05;4.63;;;15.50;99.90;;;;;;5008171;28;20448;-54
2022/11/15 13:09:36;;;;;;;11.57;4.85;;;15.30;99.90;;;;;;5008579;28;20519;-58
2022/11/15 13:12:26;;;;;;;12.68;4.55;;;15.40;99.90;;;;;;5008051;28;20400;-53
2022/11/15 13:14:53;;;;;;;11.82;4.70;;;15.40;99.90;;;;;;5024145;28;20709;-53
2022/11/15 13:17:21;;;;;;;10.13;3.80;;;15.50;99.90;;;;;;5028487;28;20458;-53
2022/11/15 13:19:52;;;;;;;10.80;4.40;;;15.50;99.90;;;;;;5006473;28;20466;-54
2022/11/15 13:25:03;;;;;;;12.63;4.40;;;15.40;99.90;;;;;;4995253;28;20405;-53
2022/11/15 13:27:29;;;;;;;12.02;4.40;;;15.50;1.00;;;;;;4989146;28;20406;-55